createdAt,value
2019-02-18T00:00:11.524Z,925.38
2019-02-18T00:01:11.568Z,925.37
2019-02-18T00:02:11.616Z,925.40
2019-02-18T00:03:11.643Z,925.41
2019-02-18T00:04:11.742Z,925.38
2019-02-18T00:05:11.754Z,925.44
2019-02-18T00:06:11.794Z,925.49
2019-02-18T00:07:14.591Z,925.55
2019-02-18T00:08:11.894Z,925.59
2019-02-18T00:09:11.962Z,925.62
2019-02-18T00:10:11.990Z,925.63
2019-02-18T00:11:12.034Z,925.63
2019-02-18T00:12:12.083Z,925.62
2019-02-18T00:13:12.121Z,925.63
2019-02-18T00:14:12.174Z,925.65
2019-02-18T00:15:12.225Z,925.63
2019-02-18T00:16:12.302Z,925.59
2019-02-18T00:17:12.309Z,925.62
2019-02-18T00:18:12.362Z,925.62
2019-02-18T00:19:12.411Z,925.66
2019-02-18T00:20:12.454Z,925.62
2019-02-18T00:21:12.482Z,925.66
2019-02-18T00:22:12.555Z,925.65
2019-02-18T00:23:12.574Z,925.67
2019-02-18T00:24:12.646Z,925.67
2019-02-18T00:25:12.671Z,925.72
2019-02-18T00:26:12.725Z,925.70
2019-02-18T00:27:12.777Z,925.71
2019-02-18T00:28:12.808Z,925.70
2019-02-18T00:29:12.853Z,925.72
2019-02-18T00:30:12.922Z,925.70
2019-02-18T00:31:12.953Z,925.74
2019-02-18T00:32:13.006Z,925.77
2019-02-18T00:33:13.096Z,925.76
2019-02-18T00:34:13.096Z,925.77
2019-02-18T00:35:13.147Z,925.74
2019-02-18T00:36:13.177Z,925.78
2019-02-18T00:37:13.234Z,925.76
2019-02-18T00:38:13.296Z,925.77
2019-02-18T00:39:13.326Z,925.79
2019-02-18T00:40:13.405Z,925.83
2019-02-18T00:41:13.414Z,925.79
2019-02-18T00:42:13.460Z,925.80
2019-02-18T00:43:13.534Z,925.78
2019-02-18T00:44:13.559Z,925.81
2019-02-18T00:45:13.602Z,925.84
2019-02-18T00:46:13.673Z,925.81
2019-02-18T00:47:13.775Z,925.83
2019-02-18T00:48:13.755Z,925.86
2019-02-18T00:49:13.801Z,925.94
2019-02-18T00:50:13.841Z,925.94
2019-02-18T00:51:13.889Z,926.02
2019-02-18T00:52:13.930Z,926.04
2019-02-18T00:53:13.984Z,926.10
2019-02-18T00:54:14.081Z,926.09
2019-02-18T00:55:14.066Z,926.07
2019-02-18T00:56:14.093Z,926.08
2019-02-18T00:57:14.166Z,926.05
2019-02-18T00:58:14.255Z,926.04
2019-02-18T00:59:14.293Z,926.10
2019-02-18T01:00:14.300Z,926.10
2019-02-18T01:01:14.336Z,926.08
2019-02-18T01:02:14.392Z,926.09
2019-02-18T01:03:14.434Z,926.03
2019-02-18T01:04:14.488Z,926.05
2019-02-18T01:05:14.528Z,926.03
2019-02-18T01:06:14.580Z,926.00
2019-02-18T01:07:14.619Z,925.99
2019-02-18T01:08:14.673Z,926.03
2019-02-18T01:09:14.721Z,925.95
2019-02-18T01:10:14.763Z,925.95
2019-02-18T01:11:14.811Z,925.96
2019-02-18T01:12:14.859Z,925.92
2019-02-18T01:13:14.941Z,925.84
2019-02-18T01:14:14.942Z,925.84
2019-02-18T01:15:14.998Z,925.82
2019-02-18T01:16:15.038Z,925.88
2019-02-18T01:17:15.093Z,925.89
2019-02-18T01:18:15.145Z,925.94
2019-02-18T01:19:15.157Z,926.00
2019-02-18T01:20:15.211Z,926.07
2019-02-18T01:21:15.275Z,926.15
2019-02-18T01:22:15.301Z,926.21
2019-02-18T01:23:15.351Z,926.20
2019-02-18T01:24:15.419Z,926.21
2019-02-18T01:25:15.444Z,926.24
2019-02-18T01:26:15.503Z,926.22
2019-02-18T01:27:15.562Z,926.25
2019-02-18T01:28:15.595Z,926.24
2019-02-18T01:29:15.635Z,926.27
2019-02-18T01:30:15.683Z,926.25
2019-02-18T01:31:15.728Z,926.20
2019-02-18T01:32:15.751Z,926.20
2019-02-18T01:33:15.823Z,926.17
2019-02-18T01:34:15.871Z,926.16
2019-02-18T01:35:15.925Z,926.15
2019-02-18T01:36:15.977Z,926.19
2019-02-18T01:37:15.993Z,926.11
2019-02-18T01:38:16.043Z,926.11
2019-02-18T01:39:16.102Z,926.08
2019-02-18T01:40:16.152Z,926.07
2019-02-18T01:41:16.205Z,926.03
2019-02-18T01:42:16.245Z,926.03
2019-02-18T01:43:16.304Z,925.98
2019-02-18T01:44:16.341Z,925.97
2019-02-18T01:45:16.385Z,925.99
2019-02-18T01:46:16.429Z,926.00
2019-02-18T01:47:16.463Z,926.06
2019-02-18T01:48:16.556Z,926.02
2019-02-18T01:49:16.551Z,926.05
2019-02-18T01:50:16.628Z,926.04
2019-02-18T01:51:16.662Z,926.03
2019-02-18T01:52:16.717Z,926.01
2019-02-18T01:53:16.805Z,926.04
2019-02-18T01:54:16.777Z,926.01
2019-02-18T01:55:16.865Z,926.05
2019-02-18T01:56:16.902Z,926.07
2019-02-18T01:57:16.948Z,926.07
2019-02-18T01:58:16.993Z,926.11
2019-02-18T01:59:17.037Z,926.08
2019-02-18T02:00:17.092Z,926.10
2019-02-18T02:01:17.138Z,926.09
2019-02-18T02:02:17.182Z,926.06
2019-02-18T02:03:17.375Z,926.08
2019-02-18T02:04:17.346Z,926.08
2019-02-18T02:05:17.337Z,926.09
2019-02-18T02:06:17.364Z,926.05
2019-02-18T02:07:17.410Z,926.03
2019-02-18T02:08:17.457Z,926.02
2019-02-18T02:09:17.501Z,925.98
2019-02-18T02:10:17.587Z,926.02
2019-02-18T02:11:17.595Z,926.00
2019-02-18T02:12:17.685Z,926.01
2019-02-18T02:13:17.692Z,926.09
2019-02-18T02:14:17.736Z,926.05
2019-02-18T02:15:17.750Z,926.11
2019-02-18T02:16:17.804Z,926.09
2019-02-18T02:17:17.846Z,926.09
2019-02-18T02:18:17.890Z,926.10
2019-02-18T02:19:18.030Z,926.11
2019-02-18T02:20:17.990Z,926.07
2019-02-18T02:21:18.049Z,926.07
2019-02-18T02:22:18.103Z,926.09
2019-02-18T02:23:18.122Z,926.04
2019-02-18T02:24:18.185Z,926.06
2019-02-18T02:25:18.218Z,926.06
2019-02-18T02:26:18.278Z,926.06
2019-02-18T02:27:18.337Z,926.06
2019-02-18T02:28:18.374Z,926.05
2019-02-18T02:29:18.402Z,926.10
2019-02-18T02:30:18.467Z,926.07
2019-02-18T02:31:18.611Z,926.07
2019-02-18T02:32:18.589Z,926.11
2019-02-18T02:33:18.641Z,926.09
2019-02-18T02:34:18.630Z,926.06
2019-02-18T02:35:18.728Z,926.04
2019-02-18T02:36:18.898Z,926.00
2019-02-18T02:37:18.830Z,926.02
2019-02-18T02:38:18.821Z,925.96
2019-02-18T02:39:18.871Z,925.95
2019-02-18T02:40:18.921Z,925.94
2019-02-18T02:41:18.960Z,925.90
2019-02-18T02:42:19.007Z,925.96
2019-02-18T02:43:19.073Z,925.91
2019-02-18T02:44:19.107Z,925.95
2019-02-18T02:45:19.151Z,925.96
2019-02-18T02:46:19.183Z,925.95
2019-02-18T02:47:19.247Z,925.92
2019-02-18T02:48:19.363Z,925.88
2019-02-18T02:49:19.343Z,925.95
2019-02-18T02:50:19.396Z,925.94
2019-02-18T02:51:19.434Z,925.96
2019-02-18T02:52:19.480Z,925.96
2019-02-18T02:53:19.522Z,926.02
2019-02-18T02:54:19.564Z,926.03
2019-02-18T02:55:19.723Z,925.99
2019-02-18T02:56:19.674Z,926.05
2019-02-18T02:57:19.719Z,926.02
2019-02-18T02:58:19.729Z,926.05
2019-02-18T02:59:19.804Z,926.07
2019-02-18T03:00:19.847Z,926.06
2019-02-18T03:01:19.975Z,926.02
2019-02-18T03:02:19.922Z,925.96
2019-02-18T03:03:19.991Z,925.99
2019-02-18T03:04:20.028Z,925.98
2019-02-18T03:05:20.059Z,925.98
2019-02-18T03:06:20.113Z,925.96
2019-02-18T03:07:20.163Z,925.98
2019-02-18T03:08:20.919Z,925.89
2019-02-18T03:09:20.269Z,925.95
2019-02-18T03:10:20.297Z,925.90
2019-02-18T03:11:20.357Z,925.90
2019-02-18T03:12:20.401Z,925.85
2019-02-18T03:13:20.444Z,925.85
2019-02-18T03:14:20.498Z,925.86
2019-02-18T03:15:20.530Z,925.84
2019-02-18T03:16:20.566Z,925.85
2019-02-18T03:17:20.609Z,925.82
2019-02-18T03:18:20.657Z,925.83
2019-02-18T03:19:20.710Z,925.82
2019-02-18T03:20:20.753Z,925.82
2019-02-18T03:21:20.782Z,925.77
2019-02-18T03:22:20.850Z,925.70
2019-02-18T03:23:20.916Z,925.75
2019-02-18T03:24:20.963Z,925.69
2019-02-18T03:25:21.012Z,925.68
2019-02-18T03:26:21.014Z,925.67
2019-02-18T03:27:21.069Z,925.63
2019-02-18T03:28:21.111Z,925.62
2019-02-18T03:29:21.177Z,925.62
2019-02-18T03:30:21.218Z,925.63
2019-02-18T03:31:21.250Z,925.62
2019-02-18T03:32:21.279Z,925.61
2019-02-18T03:33:21.381Z,925.62
2019-02-18T03:34:21.383Z,925.63
2019-02-18T03:35:21.421Z,925.67
2019-02-18T03:36:21.475Z,925.71
2019-02-18T03:37:21.509Z,925.67
2019-02-18T03:38:31.126Z,925.67
2019-02-18T03:39:21.616Z,925.67
2019-02-18T03:40:21.663Z,925.67
2019-02-18T03:41:21.699Z,925.66
2019-02-18T03:42:21.799Z,925.62
2019-02-18T03:43:21.791Z,925.58
2019-02-18T03:44:21.846Z,925.62
2019-02-18T03:45:21.916Z,925.59
2019-02-18T03:46:21.924Z,925.52
2019-02-18T03:47:21.977Z,925.58
2019-02-18T03:48:22.014Z,925.56
2019-02-18T03:49:22.084Z,925.60
2019-02-18T03:50:22.108Z,925.57
2019-02-18T03:51:22.168Z,925.60
2019-02-18T03:52:22.201Z,925.57
2019-02-18T03:53:22.265Z,925.56
2019-02-18T03:54:22.320Z,925.52
2019-02-18T03:55:22.338Z,925.49
2019-02-18T03:56:22.397Z,925.46
2019-02-18T03:57:22.409Z,925.41
2019-02-18T03:58:22.489Z,925.37
2019-02-18T03:59:22.522Z,925.37
2019-02-18T04:00:22.567Z,925.34
2019-02-18T04:01:22.626Z,925.33
2019-02-18T04:02:22.675Z,925.33
2019-02-18T04:03:22.703Z,925.30
2019-02-18T04:04:22.748Z,925.32
2019-02-18T04:05:22.800Z,925.32
2019-02-18T04:06:22.842Z,925.28
2019-02-18T04:07:22.938Z,925.31
2019-02-18T04:08:22.937Z,925.32
2019-02-18T04:09:23.016Z,925.26
2019-02-18T04:10:23.028Z,925.25
2019-02-18T04:11:23.062Z,925.23
2019-02-18T04:12:23.131Z,925.22
2019-02-18T04:13:23.201Z,925.20
2019-02-18T04:14:23.200Z,925.19
2019-02-18T04:15:23.243Z,925.14
2019-02-18T04:16:23.308Z,925.15
2019-02-18T04:17:23.347Z,925.14
2019-02-18T04:18:23.380Z,925.13
2019-02-18T04:19:23.439Z,925.10
2019-02-18T04:20:23.485Z,925.05
2019-02-18T04:21:23.538Z,925.08
2019-02-18T04:22:23.574Z,925.02
2019-02-18T04:23:23.606Z,925.07
2019-02-18T04:24:23.665Z,925.06
2019-02-18T04:25:23.709Z,925.05
2019-02-18T04:26:23.789Z,925.03
2019-02-18T04:27:23.806Z,925.04
2019-02-18T04:28:23.848Z,925.04
2019-02-18T04:29:23.903Z,925.03
2019-02-18T04:30:23.994Z,924.96
2019-02-18T04:31:23.990Z,924.96
2019-02-18T04:32:24.041Z,924.95
2019-02-18T04:33:24.090Z,924.93
2019-02-18T04:34:24.122Z,924.94
2019-02-18T04:35:24.179Z,924.93
2019-02-18T04:36:24.214Z,924.96
2019-02-18T04:37:24.266Z,924.92
2019-02-18T04:38:24.303Z,924.98
2019-02-18T04:39:24.384Z,924.95
2019-02-18T04:40:24.380Z,924.96
2019-02-18T04:41:24.428Z,924.98
2019-02-18T04:42:24.484Z,924.94
2019-02-18T04:43:24.529Z,924.97
2019-02-18T04:44:24.619Z,924.96
2019-02-18T04:45:24.666Z,924.92
2019-02-18T04:46:24.708Z,924.92
2019-02-18T04:47:24.728Z,924.86
2019-02-18T04:48:24.753Z,924.83
2019-02-18T04:49:24.799Z,924.77
2019-02-18T04:50:24.825Z,924.75
2019-02-18T04:51:24.894Z,924.77
2019-02-18T04:52:24.963Z,924.74
2019-02-18T04:53:25.041Z,924.76
2019-02-18T04:54:25.012Z,924.77
2019-02-18T04:55:25.073Z,924.77
2019-02-18T04:56:25.108Z,924.81
2019-02-18T04:57:25.171Z,924.76
2019-02-18T04:58:25.210Z,924.78
2019-02-18T04:59:25.273Z,924.75
2019-02-18T05:00:25.303Z,924.70
2019-02-18T05:01:25.389Z,924.72
2019-02-18T05:02:25.437Z,924.75
2019-02-18T05:03:25.422Z,924.72
2019-02-18T05:04:25.490Z,924.74
2019-02-18T05:05:25.535Z,924.76
2019-02-18T05:06:25.711Z,924.76
2019-02-18T05:07:25.624Z,924.79
2019-02-18T05:08:25.679Z,924.77
2019-02-18T05:09:25.703Z,924.78
2019-02-18T05:10:25.762Z,924.78
2019-02-18T05:11:25.841Z,924.74
2019-02-18T05:12:25.833Z,924.75
2019-02-18T05:13:25.872Z,924.71
2019-02-18T05:14:25.936Z,924.70
2019-02-18T05:15:25.978Z,924.70
2019-02-18T05:16:26.005Z,924.67
2019-02-18T05:17:26.075Z,924.69
2019-02-18T05:18:26.115Z,924.65
2019-02-18T05:19:26.185Z,924.66
2019-02-18T05:20:26.207Z,924.66
2019-02-18T05:21:26.260Z,924.67
2019-02-18T05:22:26.319Z,924.61
2019-02-18T05:23:26.338Z,924.68
2019-02-18T05:24:26.397Z,924.64
2019-02-18T05:25:26.441Z,924.65
2019-02-18T05:26:26.471Z,924.67
2019-02-18T05:27:33.253Z,924.67
2019-02-18T05:28:26.572Z,924.73
2019-02-18T05:29:26.616Z,924.74
2019-02-18T05:30:26.663Z,924.75
2019-02-18T05:31:26.726Z,924.76
2019-02-18T05:32:26.741Z,924.79
2019-02-18T05:33:26.808Z,924.76
2019-02-18T05:34:26.844Z,924.77
2019-02-18T05:35:26.888Z,924.70
2019-02-18T05:36:26.929Z,924.71
2019-02-18T05:37:27.000Z,924.68
2019-02-18T05:38:27.041Z,924.66
2019-02-18T05:39:27.147Z,924.68
2019-02-18T05:40:27.128Z,924.74
2019-02-18T05:41:27.161Z,924.72
2019-02-18T05:42:27.225Z,924.68
2019-02-18T05:43:27.270Z,924.67
2019-02-18T05:44:27.290Z,924.67
2019-02-18T05:45:27.369Z,924.62
2019-02-18T05:46:27.395Z,924.58
2019-02-18T05:47:27.444Z,924.56
2019-02-18T05:48:27.481Z,924.58
2019-02-18T05:49:27.534Z,924.60
2019-02-18T05:50:27.580Z,924.58
2019-02-18T05:51:28.860Z,924.63
2019-02-18T05:52:27.660Z,924.58
2019-02-18T05:53:27.716Z,924.58
2019-02-18T05:54:27.772Z,924.58
2019-02-18T05:55:27.825Z,924.57
2019-02-18T05:56:27.868Z,924.48
2019-02-18T05:57:27.924Z,924.50
2019-02-18T05:58:27.958Z,924.52
2019-02-18T05:59:28.005Z,924.51
2019-02-18T06:00:28.035Z,924.49
2019-02-18T06:01:28.097Z,924.53
2019-02-18T06:02:28.162Z,924.54
2019-02-18T06:03:28.171Z,924.54
2019-02-18T06:04:28.215Z,924.52
2019-02-18T06:05:28.298Z,924.48
2019-02-18T06:06:28.331Z,924.52
2019-02-18T06:07:28.379Z,924.55
2019-02-18T06:08:28.412Z,924.61
2019-02-18T06:09:30.292Z,924.55
2019-02-18T06:10:28.528Z,924.63
2019-02-18T06:11:28.552Z,924.63
2019-02-18T06:12:28.591Z,924.66
2019-02-18T06:13:28.618Z,924.65
2019-02-18T06:14:28.699Z,924.65
2019-02-18T06:15:28.725Z,924.68
2019-02-18T06:16:28.925Z,924.70
2019-02-18T06:17:28.815Z,924.69
2019-02-18T06:18:28.879Z,924.70
2019-02-18T06:19:28.925Z,924.68
2019-02-18T06:20:28.956Z,924.65
2019-02-18T06:21:29.023Z,924.65
2019-02-18T06:22:29.056Z,924.62
2019-02-18T06:23:29.114Z,924.59
2019-02-18T06:24:29.152Z,924.56
2019-02-18T06:25:29.200Z,924.56
2019-02-18T06:26:29.245Z,924.49
2019-02-18T06:27:29.290Z,924.50
2019-02-18T06:28:29.319Z,924.44
2019-02-18T06:29:29.363Z,924.48
2019-02-18T06:30:29.410Z,924.45
2019-02-18T06:31:29.474Z,924.43
2019-02-18T06:32:29.520Z,924.46
2019-02-18T06:33:29.562Z,924.43
2019-02-18T06:34:29.616Z,924.45
2019-02-18T06:35:29.629Z,924.43
2019-02-18T06:36:29.705Z,924.44
2019-02-18T06:37:29.754Z,924.39
2019-02-18T06:38:29.804Z,924.38
2019-02-18T06:39:40.231Z,924.39
2019-02-18T06:40:29.889Z,924.37
2019-02-18T06:41:29.922Z,924.37
2019-02-18T06:42:29.982Z,924.36
2019-02-18T06:43:30.131Z,924.34
2019-02-18T06:44:30.078Z,924.34
2019-02-18T06:45:30.120Z,924.36
2019-02-18T06:46:30.176Z,924.38
2019-02-18T06:47:30.202Z,924.37
2019-02-18T06:48:30.239Z,924.36
2019-02-18T06:49:30.288Z,924.35
2019-02-18T06:50:30.354Z,924.36
2019-02-18T06:51:30.381Z,924.34
2019-02-18T06:52:32.575Z,924.36
2019-02-18T06:53:30.470Z,924.38
2019-02-18T06:54:30.528Z,924.37
2019-02-18T06:55:30.554Z,924.36
2019-02-18T06:56:30.610Z,924.37
2019-02-18T06:57:30.676Z,924.37
2019-02-18T06:58:30.711Z,924.36
2019-02-18T06:59:30.748Z,924.35
2019-02-18T07:00:30.792Z,924.39
2019-02-18T07:01:30.864Z,924.42
2019-02-18T07:02:30.909Z,924.35
2019-02-18T07:03:30.946Z,924.38
2019-02-18T07:04:30.982Z,924.38
2019-02-18T07:05:31.022Z,924.41
2019-02-18T07:06:31.064Z,924.44
2019-02-18T07:07:31.111Z,924.38
2019-02-18T07:08:31.162Z,924.44
2019-02-18T07:09:31.206Z,924.41
2019-02-18T07:10:31.268Z,924.45
2019-02-18T07:11:31.299Z,924.44
2019-02-18T07:12:31.361Z,924.42
2019-02-18T07:13:31.422Z,924.42
2019-02-18T07:14:31.427Z,924.41
2019-02-18T07:15:31.499Z,924.40
2019-02-18T07:16:31.517Z,924.40
2019-02-18T07:17:31.592Z,924.41
2019-02-18T07:18:31.609Z,924.38
2019-02-18T07:19:31.671Z,924.40
2019-02-18T07:20:31.790Z,924.40
2019-02-18T07:21:31.769Z,924.42
2019-02-18T07:22:31.883Z,924.48
2019-02-18T07:23:31.868Z,924.55
2019-02-18T07:24:31.898Z,924.57
2019-02-18T07:25:31.959Z,924.58
2019-02-18T07:26:32.020Z,924.58
2019-02-18T07:27:32.012Z,924.60
2019-02-18T07:28:32.093Z,924.61
2019-02-18T07:29:34.056Z,924.60
2019-02-18T07:30:32.180Z,924.56
2019-02-18T07:31:32.209Z,924.54
2019-02-18T07:32:32.261Z,924.53
2019-02-18T07:33:32.312Z,924.52
2019-02-18T07:34:32.353Z,924.53
2019-02-18T07:35:32.391Z,924.54
2019-02-18T07:36:34.900Z,924.54
2019-02-18T07:37:32.512Z,924.56
2019-02-18T07:38:32.576Z,924.58
2019-02-18T07:39:32.586Z,924.53
2019-02-18T07:40:32.625Z,924.63
2019-02-18T07:41:32.665Z,924.58
2019-02-18T07:42:32.733Z,924.64
2019-02-18T07:43:32.762Z,924.66
2019-02-18T07:44:32.809Z,924.66
2019-02-18T07:45:32.853Z,924.65
2019-02-18T07:46:32.893Z,924.68
2019-02-18T07:47:32.939Z,924.69
2019-02-18T07:48:32.993Z,924.71
2019-02-18T07:49:33.026Z,924.69
2019-02-18T07:50:33.103Z,924.71
2019-02-18T07:51:33.117Z,924.69
2019-02-18T07:52:33.171Z,924.70
2019-02-18T07:53:33.237Z,924.69
2019-02-18T07:54:33.274Z,924.68
2019-02-18T07:55:33.324Z,924.62
2019-02-18T07:56:33.367Z,924.62
2019-02-18T07:57:33.412Z,924.59
2019-02-18T07:58:33.490Z,924.60
2019-02-18T07:59:33.495Z,924.62
2019-02-18T08:00:33.554Z,924.63
2019-02-18T08:01:33.589Z,924.65
2019-02-18T08:02:33.634Z,924.66
2019-02-18T08:03:33.680Z,924.74
2019-02-18T08:04:33.714Z,924.76
2019-02-18T08:05:33.863Z,924.82
2019-02-18T08:06:33.850Z,924.82
2019-02-18T08:07:33.851Z,924.84
2019-02-18T08:08:33.896Z,924.85
2019-02-18T08:09:33.967Z,924.83
2019-02-18T08:10:33.981Z,924.86
2019-02-18T08:11:34.024Z,924.81
2019-02-18T08:12:34.085Z,924.82
2019-02-18T08:13:34.130Z,924.82
2019-02-18T08:14:34.177Z,924.85
2019-02-18T08:15:34.230Z,924.83
2019-02-18T08:16:34.259Z,924.85
2019-02-18T08:17:34.312Z,924.88
2019-02-18T08:18:34.368Z,924.85
2019-02-18T08:19:34.409Z,924.86
2019-02-18T08:20:34.459Z,924.84
2019-02-18T08:21:34.480Z,924.82
2019-02-18T08:22:34.551Z,924.82
2019-02-18T08:23:34.591Z,924.85
2019-02-18T08:24:34.622Z,924.89
2019-02-18T08:25:34.685Z,924.89
2019-02-18T08:26:34.724Z,924.82
2019-02-18T08:27:34.764Z,924.83
2019-02-18T08:28:34.819Z,924.85
2019-02-18T08:29:34.854Z,924.82
2019-02-18T08:30:35.014Z,924.86
2019-02-18T08:31:34.939Z,924.89
2019-02-18T08:32:35.002Z,924.88
2019-02-18T08:33:35.036Z,924.93
2019-02-18T08:34:35.090Z,924.98
2019-02-18T08:35:35.127Z,924.97
2019-02-18T08:36:35.180Z,924.98
2019-02-18T08:37:35.218Z,924.94
2019-02-18T08:38:35.278Z,924.92
2019-02-18T08:39:35.318Z,924.94
2019-02-18T08:40:35.346Z,924.88
2019-02-18T08:41:35.389Z,924.87
2019-02-18T08:42:35.438Z,924.87
2019-02-18T08:43:35.485Z,924.92
2019-02-18T08:44:35.538Z,924.92
2019-02-18T08:45:35.590Z,924.97
2019-02-18T08:46:35.625Z,925.01
2019-02-18T08:47:35.676Z,925.00
2019-02-18T08:48:35.741Z,925.04
2019-02-18T08:49:35.762Z,925.07
2019-02-18T08:50:35.815Z,925.11
2019-02-18T08:51:35.866Z,925.14
2019-02-18T08:52:35.903Z,925.18
2019-02-18T08:53:35.943Z,925.18
2019-02-18T08:54:35.996Z,925.22
2019-02-18T08:55:36.020Z,925.21
2019-02-18T08:56:36.073Z,925.21
2019-02-18T08:57:36.150Z,925.16
2019-02-18T08:58:36.171Z,925.15
2019-02-18T08:59:36.207Z,925.10
2019-02-18T09:00:36.273Z,925.09
2019-02-18T09:01:36.303Z,925.10
2019-02-18T09:02:36.353Z,925.11
2019-02-18T09:03:36.483Z,925.19
2019-02-18T09:04:36.453Z,925.14
2019-02-18T09:05:36.490Z,925.20
2019-02-18T09:06:36.550Z,925.20
2019-02-18T09:07:36.580Z,925.21
2019-02-18T09:08:36.635Z,925.25
2019-02-18T09:09:36.657Z,925.26
2019-02-18T09:10:36.712Z,925.26
2019-02-18T09:11:36.766Z,925.20
2019-02-18T09:12:36.783Z,925.24
2019-02-18T09:13:36.852Z,925.24
2019-02-18T09:14:36.921Z,925.27
2019-02-18T09:15:36.926Z,925.24
2019-02-18T09:16:36.980Z,925.23
2019-02-18T09:17:37.022Z,925.24
2019-02-18T09:18:37.094Z,925.22
2019-02-18T09:19:37.120Z,925.25
2019-02-18T09:20:37.160Z,925.26
2019-02-18T09:21:37.216Z,925.28
2019-02-18T09:22:37.257Z,925.27
2019-02-18T09:23:37.334Z,925.31
2019-02-18T09:24:37.366Z,925.32
2019-02-18T09:25:37.419Z,925.34
2019-02-18T09:26:37.451Z,925.33
2019-02-18T09:27:37.499Z,925.31
2019-02-18T09:28:37.532Z,925.32
2019-02-18T09:29:37.591Z,925.30
2019-02-18T09:30:37.624Z,925.29
2019-02-18T09:31:37.653Z,925.26
2019-02-18T09:32:37.722Z,925.30
2019-02-18T09:33:37.744Z,925.33
2019-02-18T09:34:37.809Z,925.36
2019-02-18T09:35:37.848Z,925.39
2019-02-18T09:36:37.914Z,925.44
2019-02-18T09:37:37.969Z,925.46
2019-02-18T09:38:37.988Z,925.45
2019-02-18T09:39:38.035Z,925.47
2019-02-18T09:40:44.582Z,925.43
2019-02-18T09:41:38.120Z,925.41
2019-02-18T09:42:38.174Z,925.41
2019-02-18T09:43:38.218Z,925.39
2019-02-18T09:44:38.272Z,925.38
2019-02-18T09:45:38.315Z,925.37
2019-02-18T09:46:40.334Z,925.45
2019-02-18T09:47:38.399Z,925.47
2019-02-18T09:48:38.446Z,925.48
2019-02-18T09:49:38.498Z,925.48
2019-02-18T09:50:38.554Z,925.47
2019-02-18T09:51:38.589Z,925.51
2019-02-18T09:52:38.640Z,925.50
2019-02-18T09:53:38.675Z,925.59
2019-02-18T09:54:38.744Z,925.60
2019-02-18T09:55:38.788Z,925.63
2019-02-18T09:56:38.817Z,925.67
2019-02-18T09:57:38.877Z,925.71
2019-02-18T09:58:38.917Z,925.70
2019-02-18T09:59:38.958Z,925.71
2019-02-18T10:00:39.013Z,925.71
2019-02-18T10:01:39.060Z,925.67
2019-02-18T10:02:39.090Z,925.65
2019-02-18T10:03:39.137Z,925.74
2019-02-18T10:04:39.192Z,925.72
2019-02-18T10:05:39.255Z,925.73
2019-02-18T10:06:39.301Z,925.71
2019-02-18T10:07:39.345Z,925.69
2019-02-18T10:08:39.391Z,925.66
2019-02-18T10:09:39.451Z,925.70
2019-02-18T10:10:39.494Z,925.69
2019-02-18T10:11:39.554Z,925.68
2019-02-18T10:12:39.572Z,925.73
2019-02-18T10:13:39.630Z,925.68
2019-02-18T10:14:39.681Z,925.69
2019-02-18T10:15:39.738Z,925.67
2019-02-18T10:16:39.788Z,925.63
2019-02-18T10:17:39.828Z,925.65
2019-02-18T10:18:39.849Z,925.68
2019-02-18T10:19:39.895Z,925.71
2019-02-18T10:20:39.968Z,925.77
2019-02-18T10:21:40.000Z,925.83
2019-02-18T10:22:40.052Z,925.87
2019-02-18T10:23:40.097Z,925.86
2019-02-18T10:24:50.540Z,925.89
2019-02-18T10:25:40.187Z,925.88
2019-02-18T10:26:40.257Z,925.86
2019-02-18T10:27:40.296Z,925.84
2019-02-18T10:28:40.348Z,925.84
2019-02-18T10:29:40.375Z,925.85
2019-02-18T10:30:40.428Z,925.88
2019-02-18T10:31:40.474Z,925.92
2019-02-18T10:32:40.527Z,925.91
2019-02-18T10:33:40.582Z,926.00
2019-02-18T10:34:40.623Z,926.01
2019-02-18T10:35:40.660Z,926.08
2019-02-18T10:36:40.721Z,926.07
2019-02-18T10:37:40.781Z,926.15
2019-02-18T10:38:40.827Z,926.14
2019-02-18T10:39:40.874Z,926.14
2019-02-18T10:40:40.926Z,926.17
2019-02-18T10:41:40.984Z,926.21
2019-02-18T10:42:41.018Z,926.20
2019-02-18T10:43:41.083Z,926.28
2019-02-18T10:44:41.111Z,926.26
2019-02-18T10:45:41.167Z,926.30
2019-02-18T10:46:41.227Z,926.29
2019-02-18T10:47:41.308Z,926.26
2019-02-18T10:48:41.336Z,926.30
2019-02-18T10:49:41.384Z,926.29
2019-02-18T10:50:41.436Z,926.26
2019-02-18T10:51:41.501Z,926.20
2019-02-18T10:52:41.560Z,926.17
2019-02-18T10:53:41.611Z,926.13
2019-02-18T10:54:41.679Z,926.15
2019-02-18T10:55:41.693Z,926.12
2019-02-18T10:56:41.767Z,926.16
2019-02-18T10:57:41.805Z,926.15
2019-02-18T10:58:41.855Z,926.22
2019-02-18T10:59:41.908Z,926.25
2019-02-18T11:00:41.967Z,926.19
2019-02-18T11:01:42.013Z,926.23
2019-02-18T11:02:42.069Z,926.25
2019-02-18T11:03:42.132Z,926.26
2019-02-18T11:04:42.171Z,926.38
2019-02-18T11:05:42.250Z,926.38
2019-02-18T11:06:42.285Z,926.37
2019-02-18T11:07:42.351Z,926.42
2019-02-18T11:08:42.390Z,926.41
2019-02-18T11:09:42.445Z,926.45
2019-02-18T11:10:42.502Z,926.45
2019-02-18T11:11:42.552Z,926.48
2019-02-18T11:12:42.685Z,926.50
2019-02-18T11:13:42.653Z,926.46
2019-02-18T11:14:42.710Z,926.48
2019-02-18T11:15:42.783Z,926.52
2019-02-18T11:16:42.825Z,926.54
2019-02-18T11:17:42.878Z,926.49
2019-02-18T11:18:42.932Z,926.56
2019-02-18T11:19:42.994Z,926.57
2019-02-18T11:20:43.072Z,926.55
2019-02-18T11:21:43.112Z,926.57
2019-02-18T11:22:43.191Z,926.63
2019-02-18T11:23:43.202Z,926.67
2019-02-18T11:24:43.357Z,926.70
2019-02-18T11:25:43.296Z,926.71
2019-02-18T11:26:43.371Z,926.76
2019-02-18T11:27:43.442Z,926.77
2019-02-18T11:28:43.473Z,926.77
2019-02-18T11:29:43.491Z,926.75
2019-02-18T11:30:43.600Z,926.75
2019-02-18T11:31:43.602Z,926.73
2019-02-18T11:32:43.711Z,926.76
2019-02-18T11:33:43.722Z,926.73
2019-02-18T11:34:43.780Z,926.72
2019-02-18T11:35:43.844Z,926.72
2019-02-18T11:36:43.867Z,926.71
2019-02-18T11:37:43.944Z,926.74
2019-02-18T11:38:44.031Z,926.75
2019-02-18T11:39:44.054Z,926.74
2019-02-18T11:40:44.077Z,926.76
2019-02-18T11:41:44.137Z,926.80
2019-02-18T11:42:44.182Z,926.83
2019-02-18T11:43:44.237Z,926.89
2019-02-18T11:44:44.285Z,926.85
2019-02-18T11:45:44.336Z,926.84
2019-02-18T11:46:44.397Z,926.81
2019-02-18T11:47:44.467Z,926.78
2019-02-18T11:48:44.501Z,926.79
2019-02-18T11:49:44.558Z,926.82
2019-02-18T11:50:44.597Z,926.89
2019-02-18T11:51:44.661Z,926.92
2019-02-18T11:52:44.717Z,926.92
2019-02-18T11:53:44.765Z,926.96
2019-02-18T11:54:44.833Z,927.00
2019-02-18T11:55:44.877Z,927.04
2019-02-18T11:56:44.919Z,927.01
2019-02-18T11:57:44.974Z,926.99
2019-02-18T11:58:45.007Z,927.00
2019-02-18T11:59:45.091Z,927.03
2019-02-18T12:00:45.113Z,927.02
2019-02-18T12:01:45.216Z,926.99
2019-02-18T12:02:45.215Z,927.07
2019-02-18T12:03:45.301Z,927.04
2019-02-18T12:04:45.349Z,927.01
2019-02-18T12:05:45.405Z,927.00
2019-02-18T12:06:45.464Z,927.01
2019-02-18T12:07:45.483Z,927.02
2019-02-18T12:08:45.537Z,927.01
2019-02-18T12:09:45.594Z,927.05
2019-02-18T12:10:45.670Z,927.05
2019-02-18T12:11:45.726Z,927.03
2019-02-18T12:12:45.774Z,927.04
2019-02-18T12:13:45.837Z,927.02
2019-02-18T12:14:45.842Z,927.03
2019-02-18T12:15:45.926Z,927.08
2019-02-18T12:16:45.977Z,927.06
2019-02-18T12:17:46.035Z,926.99
2019-02-18T12:18:46.083Z,927.01
2019-02-18T12:19:46.165Z,927.02
2019-02-18T12:20:46.179Z,927.06
2019-02-18T12:21:46.235Z,927.04
2019-02-18T12:22:46.287Z,927.05
2019-02-18T12:23:46.355Z,927.12
2019-02-18T12:24:46.443Z,927.10
2019-02-18T12:25:46.429Z,927.07
2019-02-18T12:26:46.523Z,927.11
2019-02-18T12:27:46.559Z,927.08
2019-02-18T12:28:46.619Z,927.11